createdAt,value
2022-10-29T00:01:38.291Z,10.80
2022-10-29T00:04:05.422Z,12.40
2022-10-29T00:06:32.470Z,12.40
2022-10-29T00:09:17.807Z,10.90
2022-10-29T00:11:44.900Z,10.90
2022-10-29T00:14:11.886Z,13.20
2022-10-29T00:16:57.201Z,14.60
2022-10-29T00:19:24.847Z,13.10
2022-10-29T00:21:51.714Z,13.50
2022-10-29T00:24:18.753Z,10.30
2022-10-29T00:26:45.707Z,13.50
2022-10-29T00:29:12.559Z,10.80
2022-10-29T00:31:39.487Z,13.00
2022-10-29T00:34:06.906Z,14.70
2022-10-29T00:36:33.814Z,11.90
2022-10-29T00:39:37.656Z,11.70
2022-10-29T00:42:23.272Z,10.00
2022-10-29T00:44:50.796Z,13.10
2022-10-29T00:47:25.859Z,15.30
2022-10-29T00:50:18.710Z,10.40
2022-10-29T00:53:03.778Z,12.90
2022-10-29T00:55:31.581Z,11.00
2022-10-29T00:58:00.308Z,13.50
2022-10-29T01:00:27.701Z,11.30
2022-10-29T01:03:13.418Z,14.40
2022-10-29T01:05:41.263Z,14.80
2022-10-29T01:08:08.533Z,13.30
2022-10-29T01:11:15.702Z,11.80
2022-10-29T01:14:30.192Z,11.90
2022-10-29T01:17:45.035Z,11.90
2022-10-29T01:20:35.114Z,11.20
2022-10-29T01:23:55.975Z,8.60
2022-10-29T01:27:17.724Z,12.50
2022-10-29T01:30:06.416Z,14.30
2022-10-29T01:32:51.570Z,10.00
2022-10-29T01:35:40.867Z,11.30
2022-10-29T01:38:28.147Z,12.10
2022-10-29T01:40:59.443Z,12.30
2022-10-29T01:43:30.039Z,14.10
2022-10-29T01:46:08.515Z,12.10
2022-10-29T01:48:39.349Z,12.00
2022-10-29T01:51:15.552Z,12.50
2022-10-29T01:53:42.515Z,11.90
2022-10-29T01:56:09.355Z,12.00
2022-10-29T01:58:37.291Z,13.70
2022-10-29T02:01:16.807Z,12.00
2022-10-29T02:04:20.476Z,10.60
2022-10-29T02:07:08.613Z,10.80
2022-10-29T02:12:19.300Z,9.90
2022-10-29T02:14:52.076Z,11.50
2022-10-29T02:17:19.440Z,11.80
2022-10-29T02:19:46.510Z,14.40
2022-10-29T02:22:31.467Z,11.60
2022-10-29T02:25:16.839Z,14.60
2022-10-29T02:27:43.714Z,9.60
2022-10-29T02:30:10.732Z,12.20
2022-10-29T02:32:37.573Z,12.20
2022-10-29T02:35:04.976Z,10.60
2022-10-29T02:37:32.282Z,14.70
2022-10-29T02:39:59.079Z,10.70
2022-10-29T02:42:26.487Z,12.90
2022-10-29T02:44:53.528Z,12.20
2022-10-29T02:47:39.162Z,10.70
2022-10-29T02:50:07.145Z,14.30
2022-10-29T02:52:52.988Z,11.50
2022-10-29T02:55:20.040Z,11.40
2022-10-29T02:57:46.882Z,13.90
2022-10-29T03:00:14.299Z,12.90
2022-10-29T03:02:41.439Z,13.00
2022-10-29T03:05:08.890Z,12.70
2022-10-29T03:07:53.605Z,10.90
2022-10-29T03:10:39.616Z,13.60
2022-10-29T03:13:06.470Z,13.80
2022-10-29T03:15:33.887Z,12.80
2022-10-29T03:18:18.848Z,10.50
2022-10-29T03:20:47.025Z,14.20
2022-10-29T03:23:13.888Z,16.20
2022-10-29T03:25:41.003Z,13.40
2022-10-29T03:28:07.881Z,11.90
2022-10-29T03:30:34.688Z,14.40
2022-10-29T03:33:01.675Z,13.90
2022-10-29T03:35:28.661Z,13.40
2022-10-29T03:37:55.476Z,17.10
2022-10-29T03:40:22.309Z,12.50
2022-10-29T03:43:07.341Z,13.50
2022-10-29T03:45:54.417Z,13.20
2022-10-29T03:48:22.887Z,14.60
2022-10-29T03:51:09.586Z,12.50
2022-10-29T03:53:37.021Z,16.10
2022-10-29T03:56:40.855Z,14.60
2022-10-29T03:59:08.002Z,16.50
2022-10-29T04:01:35.267Z,15.70
2022-10-29T04:04:02.216Z,14.60
2022-10-29T04:06:29.074Z,15.80
2022-10-29T04:09:14.208Z,16.80
2022-10-29T04:12:00.618Z,16.00
2022-10-29T04:14:27.757Z,11.30
2022-10-29T04:17:14.186Z,16.00
2022-10-29T04:19:59.372Z,15.20
2022-10-29T04:31:25.718Z,14.40
2022-10-29T04:34:11.509Z,14.20
2022-10-29T04:36:38.279Z,13.70
2022-10-29T04:39:05.231Z,13.30
2022-10-29T04:41:50.700Z,16.10
2022-10-29T04:44:35.616Z,14.30
2022-10-29T04:47:02.810Z,19.70
2022-10-29T04:49:48.129Z,13.20
2022-10-29T04:52:33.835Z,11.60
2022-10-29T04:55:18.977Z,15.50
2022-10-29T04:57:49.700Z,16.50
2022-10-29T05:00:18.807Z,15.00
2022-10-29T05:02:50.456Z,13.50
2022-10-29T05:05:19.168Z,15.20
2022-10-29T05:07:46.816Z,13.40
2022-10-29T05:10:14.117Z,10.90
2022-10-29T05:12:41.536Z,13.90
2022-10-29T05:15:08.595Z,18.10
2022-10-29T05:17:38.538Z,13.20
2022-10-29T05:20:05.987Z,9.30
2022-10-29T05:22:32.753Z,14.70
2022-10-29T05:24:59.605Z,13.20
2022-10-29T05:27:26.468Z,15.00
2022-10-29T05:30:11.801Z,13.40
2022-10-29T05:32:38.666Z,10.10
2022-10-29T05:35:05.674Z,13.40
2022-10-29T05:37:32.490Z,14.40
2022-10-29T05:40:02.886Z,12.50
2022-10-29T05:42:49.532Z,13.30
2022-10-29T05:45:16.561Z,13.30
2022-10-29T05:48:07.450Z,16.40
2022-10-29T05:50:34.680Z,11.20
2022-10-29T05:53:07.380Z,14.40
2022-10-29T05:55:35.156Z,11.30
2022-10-29T05:58:04.444Z,9.00
2022-10-29T06:00:33.541Z,11.70
2022-10-29T06:03:00.811Z,11.60
2022-10-29T06:05:28.172Z,12.00
2022-10-29T06:07:58.877Z,12.50
2022-10-29T06:10:27.971Z,9.90
2022-10-29T06:13:19.420Z,11.00
2022-10-29T06:15:47.515Z,11.50
2022-10-29T06:18:15.375Z,14.40
2022-10-29T06:20:44.937Z,12.50
2022-10-29T06:23:30.241Z,11.00
2022-10-29T06:26:16.252Z,10.60
2022-10-29T06:29:01.444Z,10.30
2022-10-29T06:31:28.437Z,7.70
2022-10-29T06:34:14.148Z,8.60
2022-10-29T06:36:41.948Z,9.50
2022-10-29T06:39:08.850Z,11.60
2022-10-29T06:41:35.615Z,11.80
2022-10-29T06:44:04.045Z,11.10
2022-10-29T06:46:30.926Z,13.10
2022-10-29T06:48:57.703Z,10.40
2022-10-29T06:51:24.861Z,15.00
2022-10-29T06:53:53.548Z,11.50
2022-10-29T06:56:39.189Z,10.00
2022-10-29T06:59:42.825Z,10.50
2022-10-29T07:02:12.873Z,11.70
2022-10-29T07:04:39.647Z,9.10
2022-10-29T07:07:06.661Z,13.30
2022-10-29T07:09:53.169Z,10.50
2022-10-29T07:12:19.945Z,10.80
2022-10-29T07:14:47.052Z,11.10
2022-10-29T07:17:13.847Z,10.40
2022-10-29T07:19:40.661Z,12.90
2022-10-29T07:22:08.152Z,12.30
2022-10-29T07:24:34.989Z,9.60
2022-10-29T07:27:02.021Z,8.60
2022-10-29T07:29:47.523Z,9.00
2022-10-29T07:32:32.370Z,9.20
2022-10-29T07:35:17.410Z,9.60
2022-10-29T07:38:21.301Z,10.40
2022-10-29T07:40:49.542Z,9.80
2022-10-29T07:43:18.648Z,11.90
2022-10-29T07:45:49.357Z,9.20
2022-10-29T07:48:17.825Z,9.80
2022-10-29T07:51:02.941Z,9.80
2022-10-29T07:53:32.724Z,8.80
2022-10-29T07:56:18.697Z,11.30
2022-10-29T07:58:45.619Z,8.70
2022-10-29T08:01:32.437Z,6.00
2022-10-29T08:04:18.231Z,10.90
2022-10-29T08:06:45.137Z,9.10
2022-10-29T08:09:48.793Z,8.70
2022-10-29T08:12:55.931Z,7.80
2022-10-29T08:15:24.540Z,10.30
2022-10-29T08:17:51.763Z,9.80
2022-10-29T08:20:19.791Z,8.80
2022-10-29T08:22:46.910Z,10.30
2022-10-29T08:25:14.679Z,5.60
2022-10-29T08:27:42.130Z,12.10
2022-10-29T08:30:49.608Z,10.10
2022-10-29T08:33:17.137Z,7.00
2022-10-29T08:35:44.441Z,7.30
2022-10-29T08:38:11.511Z,7.70
2022-10-29T08:41:00.276Z,7.30
2022-10-29T08:43:30.135Z,10.70
2022-10-29T08:46:24.173Z,8.30
2022-10-29T08:50:05.186Z,9.00
2022-10-29T08:52:58.834Z,7.60
2022-10-29T08:55:39.764Z,9.50
2022-10-29T08:58:40.990Z,10.40
2022-10-29T09:01:11.392Z,7.30
2022-10-29T09:03:38.620Z,9.70
2022-10-29T09:06:14.153Z,10.00
2022-10-29T09:09:14.654Z,10.90
2022-10-29T09:11:51.072Z,8.10
2022-10-29T09:14:34.703Z,7.50
2022-10-29T09:17:01.929Z,8.80
2022-10-29T09:19:58.958Z,7.60
2022-10-29T09:23:21.732Z,9.90
2022-10-29T09:25:52.400Z,7.90
2022-10-29T09:28:35.563Z,5.00
2022-10-29T09:31:55.936Z,8.50
2022-10-29T09:34:34.044Z,9.20
2022-10-29T09:37:01.931Z,8.70
2022-10-29T09:39:34.853Z,8.20
2022-10-29T09:42:11.013Z,8.90
2022-10-29T09:44:53.591Z,6.50
2022-10-29T09:47:27.893Z,10.20
2022-10-29T09:50:08.780Z,9.80
2022-10-29T09:52:54.382Z,5.10
2022-10-29T09:55:43.452Z,6.00
2022-10-29T10:00:48.671Z,8.70
2022-10-29T10:03:26.767Z,10.40
2022-10-29T10:06:11.155Z,4.60
2022-10-29T10:09:01.416Z,10.00
2022-10-29T10:11:52.392Z,7.80
2022-10-29T10:14:38.596Z,10.60
2022-10-29T10:17:23.712Z,9.30
2022-10-29T10:19:57.033Z,9.80
2022-10-29T10:22:46.935Z,8.10
2022-10-29T10:25:35.985Z,6.40
2022-10-29T10:28:24.019Z,7.10
2022-10-29T10:31:14.400Z,3.50
2022-10-29T10:33:54.284Z,5.60
2022-10-29T10:36:24.640Z,3.40
2022-10-29T10:39:22.979Z,6.80
2022-10-29T10:42:30.792Z,4.30
2022-10-29T10:44:59.070Z,7.90
2022-10-29T10:47:32.562Z,4.50
2022-10-29T10:50:17.699Z,5.20
2022-10-29T10:52:45.945Z,7.90
2022-10-29T10:55:32.070Z,8.20
2022-10-29T10:58:12.015Z,6.70
2022-10-29T11:01:00.384Z,5.00
2022-10-29T11:03:46.924Z,6.80
2022-10-29T11:06:39.608Z,8.40
2022-10-29T11:09:29.694Z,5.40
2022-10-29T11:11:59.544Z,5.30
2022-10-29T11:14:44.413Z,8.40
2022-10-29T11:17:55.899Z,6.10
2022-10-29T11:20:31.938Z,6.50
2022-10-29T11:23:41.192Z,6.20
2022-10-29T11:26:40.157Z,4.20
2022-10-29T11:29:28.871Z,7.20
2022-10-29T11:32:06.658Z,3.60
2022-10-29T11:35:03.878Z,6.30
2022-10-29T11:37:57.216Z,4.80
2022-10-29T11:41:19.439Z,4.80
2022-10-29T11:44:11.704Z,7.00
2022-10-29T11:46:43.960Z,7.00
2022-10-29T11:49:20.853Z,3.60
2022-10-29T11:52:14.231Z,4.40
2022-10-29T11:54:59.387Z,4.90
2022-10-29T11:57:39.599Z,4.50
2022-10-29T12:00:18.766Z,5.30
2022-10-29T12:03:22.348Z,2.40
2022-10-29T12:06:15.626Z,7.40
2022-10-29T12:09:02.729Z,4.70
2022-10-29T12:12:01.761Z,5.50
2022-10-29T12:14:44.619Z,5.80
2022-10-29T12:17:20.494Z,5.80
2022-10-29T12:19:59.891Z,7.60
2022-10-29T12:22:41.596Z,4.10
2022-10-29T12:25:37.609Z,6.50
2022-10-29T12:28:18.600Z,5.80
2022-10-29T12:31:20.267Z,5.90
2022-10-29T12:33:59.227Z,7.80
2022-10-29T12:36:28.959Z,8.80
2022-10-29T12:38:57.478Z,9.20
2022-10-29T12:41:31.550Z,5.70
2022-10-29T12:44:35.761Z,5.20
2022-10-29T12:47:13.894Z,6.40
2022-10-29T12:49:49.687Z,5.40
2022-10-29T12:52:30.711Z,5.80
2022-10-29T12:57:43.347Z,5.00
2022-10-29T13:00:26.799Z,7.60
2022-10-29T13:02:54.571Z,7.40
2022-10-29T13:05:37.344Z,6.30
2022-10-29T13:08:04.202Z,7.90
2022-10-29T13:10:34.026Z,5.20
2022-10-29T13:13:15.703Z,6.30
2022-10-29T13:15:46.633Z,6.30
2022-10-29T13:18:28.822Z,6.20
2022-10-29T13:20:55.885Z,6.40
2022-10-29T13:23:41.421Z,5.90
2022-10-29T13:26:08.676Z,3.70
2022-10-29T13:29:45.875Z,6.80
2022-10-29T13:32:30.683Z,4.60
2022-10-29T13:35:00.291Z,4.30
2022-10-29T13:37:45.827Z,3.70
2022-10-29T13:40:21.515Z,4.30
2022-10-29T13:43:10.717Z,5.10
2022-10-29T13:45:40.908Z,3.90
2022-10-29T13:48:18.916Z,5.50
2022-10-29T13:50:50.571Z,6.70
2022-10-29T13:53:22.767Z,5.20
2022-10-29T13:55:51.067Z,5.50
2022-10-29T13:58:42.658Z,4.90
2022-10-29T14:01:15.073Z,5.40
2022-10-29T14:04:20.213Z,6.50
2022-10-29T14:07:14.263Z,3.70
2022-10-29T14:10:06.661Z,4.40
2022-10-29T14:12:35.127Z,6.00
2022-10-29T14:15:14.469Z,3.80
2022-10-29T14:18:16.946Z,5.40
2022-10-29T14:20:54.143Z,4.00
2022-10-29T14:23:21.604Z,3.90
2022-10-29T14:26:16.699Z,4.70
2022-10-29T14:28:43.678Z,3.90
2022-10-29T14:31:15.847Z,7.70
2022-10-29T14:33:44.381Z,5.00
2022-10-29T14:36:30.234Z,6.10
2022-10-29T14:39:04.927Z,5.70
2022-10-29T14:41:32.417Z,5.20
2022-10-29T14:44:09.796Z,2.80
2022-10-29T14:47:01.062Z,5.50
2022-10-29T14:49:30.179Z,5.20
2022-10-29T14:52:07.721Z,4.60
2022-10-29T14:54:39.287Z,6.60
2022-10-29T14:57:13.273Z,57.80
2022-10-29T15:00:05.474Z,15.40
2022-10-29T15:02:39.003Z,9.70
2022-10-29T15:05:36.343Z,6.60
2022-10-29T15:08:28.781Z,5.80
2022-10-29T15:10:57.664Z,5.20
2022-10-29T15:13:45.676Z,5.60
2022-10-29T15:16:20.817Z,4.40
2022-10-29T15:18:53.220Z,6.00
2022-10-29T15:21:32.120Z,5.40
2022-10-29T15:24:09.516Z,6.00
2022-10-29T15:26:46.931Z,7.00
2022-10-29T15:29:16.439Z,4.80
2022-10-29T15:32:01.732Z,5.80
2022-10-29T15:34:36.329Z,5.80
2022-10-29T15:37:18.475Z,7.30
2022-10-29T15:40:06.441Z,9.90
2022-10-29T15:42:35.579Z,9.50
2022-10-29T15:45:27.554Z,14.30
2022-10-29T15:48:13.318Z,13.70
2022-10-29T15:50:59.739Z,11.70
2022-10-29T15:53:45.101Z,12.10
2022-10-29T15:56:31.242Z,10.00
2022-10-29T15:59:21.982Z,7.50
2022-10-29T16:05:13.427Z,6.30
2022-10-29T16:07:42.377Z,8.30
2022-10-29T16:10:15.666Z,7.90
2022-10-29T16:12:42.757Z,8.80
2022-10-29T16:15:17.952Z,8.60
2022-10-29T16:17:46.346Z,7.00
2022-10-29T16:20:16.371Z,8.40
2022-10-29T16:22:44.186Z,8.50
2022-10-29T16:25:21.681Z,8.20
2022-10-29T16:27:49.020Z,10.50
2022-10-29T16:30:16.201Z,10.50
2022-10-29T16:32:44.096Z,11.90
2022-10-29T16:35:31.095Z,12.60
2022-10-29T16:38:18.054Z,10.90
2022-10-29T16:40:45.031Z,15.80
2022-10-29T16:43:30.438Z,11.50
2022-10-29T16:46:16.305Z,13.90
2022-10-29T16:48:43.993Z,14.70
2022-10-29T16:51:30.432Z,13.70
2022-10-29T16:54:17.084Z,8.50
2022-10-29T16:56:44.559Z,10.40
2022-10-29T16:59:11.540Z,11.50
2022-10-29T17:01:56.873Z,10.20
2022-10-29T17:04:24.000Z,11.40
2022-10-29T17:07:09.195Z,13.80
2022-10-29T17:09:36.663Z,13.10
2022-10-29T17:12:22.094Z,15.90
2022-10-29T17:14:49.104Z,11.00
2022-10-29T17:17:34.539Z,7.60
2022-10-29T17:20:20.971Z,9.40
2022-10-29T17:22:49.105Z,13.70
2022-10-29T17:25:15.958Z,9.10
2022-10-29T17:27:43.115Z,10.30
2022-10-29T17:30:29.949Z,13.10
2022-10-29T17:32:57.020Z,11.30
2022-10-29T17:35:25.282Z,12.90
2022-10-29T17:38:11.135Z,11.80
2022-10-29T17:40:57.304Z,13.80
2022-10-29T17:43:24.128Z,11.70
2022-10-29T17:46:27.744Z,12.50
2022-10-29T17:49:12.841Z,10.50
2022-10-29T17:51:39.763Z,13.20
2022-10-29T17:54:06.546Z,11.30
2022-10-29T17:56:33.712Z,12.30
2022-10-29T17:59:00.892Z,10.10
2022-10-29T18:01:46.863Z,9.20
2022-10-29T18:04:32.923Z,11.30
2022-10-29T18:06:59.974Z,12.70
2022-10-29T18:09:44.923Z,11.10
2022-10-29T18:12:11.963Z,12.30
2022-10-29T18:14:38.783Z,15.20
2022-10-29T18:17:05.788Z,17.20
2022-10-29T18:19:51.993Z,15.40
2022-10-29T18:22:18.883Z,15.80
2022-10-29T18:24:45.708Z,24.10
2022-10-29T18:27:12.616Z,17.90
2022-10-29T18:29:57.968Z,14.50
2022-10-29T18:32:24.937Z,15.30
2022-10-29T18:34:51.836Z,15.20
2022-10-29T18:37:18.904Z,16.20
2022-10-29T18:39:45.810Z,18.40
2022-10-29T18:42:12.653Z,14.20
2022-10-29T18:44:39.639Z,14.70
2022-10-29T18:47:06.543Z,14.90
2022-10-29T18:49:33.474Z,10.70
2022-10-29T18:52:00.356Z,13.20
2022-10-29T18:54:27.331Z,9.80
2022-10-29T18:57:16.734Z,12.50
2022-10-29T19:00:05.598Z,9.60
2022-10-29T19:02:50.657Z,9.70
2022-10-29T19:05:36.305Z,10.60
2022-10-29T19:08:22.150Z,9.30
2022-10-29T19:10:49.011Z,12.80
2022-10-29T19:13:34.909Z,10.10
2022-10-29T19:16:06.971Z,9.10
2022-10-29T19:18:34.777Z,11.10
2022-10-29T19:21:06.974Z,10.20
2022-10-29T19:23:34.747Z,12.00
2022-10-29T19:26:03.576Z,12.90
2022-10-29T19:28:30.545Z,13.00
2022-10-29T19:31:05.738Z,15.20
2022-10-29T19:33:32.809Z,14.90
2022-10-29T19:36:00.402Z,15.70
2022-10-29T19:38:27.975Z,15.00
2022-10-29T19:41:14.333Z,11.80
2022-10-29T19:43:41.753Z,13.70
2022-10-29T19:46:26.853Z,12.20
2022-10-29T19:48:55.678Z,10.40
2022-10-29T19:51:23.064Z,9.10
2022-10-29T19:54:08.472Z,11.90
2022-10-29T19:56:53.357Z,11.10
2022-10-29T19:59:38.355Z,11.20
2022-10-29T20:02:06.217Z,15.00
2022-10-29T20:04:33.259Z,12.50
2022-10-29T20:07:18.208Z,17.40
2022-10-29T20:10:05.825Z,12.90
2022-10-29T20:12:51.665Z,12.70
2022-10-29T20:15:18.698Z,11.50
2022-10-29T20:18:04.468Z,12.30
2022-10-29T20:20:55.392Z,12.50
2022-10-29T20:23:23.457Z,11.30
2022-10-29T20:26:27.436Z,13.60
2022-10-29T20:28:56.635Z,11.40
2022-10-29T20:31:30.120Z,16.00
2022-10-29T20:34:34.992Z,14.50
2022-10-29T20:37:01.877Z,13.40
2022-10-29T20:39:32.423Z,15.00
2022-10-29T20:42:00.557Z,15.30
2022-10-29T20:44:27.539Z,17.00
2022-10-29T20:47:12.813Z,15.50
2022-10-29T20:49:42.362Z,16.00
2022-10-29T20:52:15.075Z,15.60
2022-10-29T20:54:43.452Z,15.00
2022-10-29T20:57:10.358Z,14.70
2022-10-29T20:59:55.674Z,13.50
2022-10-29T21:02:22.871Z,13.10
2022-10-29T21:04:50.035Z,14.10
2022-10-29T21:07:35.814Z,14.80
2022-10-29T21:10:07.867Z,13.60
2022-10-29T21:12:59.320Z,15.10
2022-10-29T21:18:57.744Z,13.80
2022-10-29T21:21:46.748Z,16.00
2022-10-29T21:24:44.525Z,15.50
2022-10-29T21:32:16.747Z,12.00
2022-10-29T21:35:05.424Z,14.70
2022-10-29T21:37:32.980Z,16.40
2022-10-29T21:40:03.437Z,11.30
2022-10-29T21:43:16.124Z,13.50
2022-10-29T21:46:15.943Z,12.40
2022-10-29T21:48:53.030Z,16.60
2022-10-29T21:52:15.519Z,11.90
2022-10-29T21:54:55.810Z,13.30
2022-10-29T21:57:43.993Z,11.80
2022-10-29T22:00:27.471Z,12.20
2022-10-29T22:03:37.425Z,12.30
2022-10-29T22:06:29.462Z,13.30
2022-10-29T22:09:04.544Z,15.20
2022-10-29T22:12:09.281Z,13.20
2022-10-29T22:15:53.582Z,12.20
2022-10-29T22:18:42.679Z,13.80
2022-10-29T22:22:18.780Z,12.30
2022-10-29T22:25:05.904Z,14.90
2022-10-29T22:27:44.413Z,14.40
2022-10-29T22:30:43.460Z,13.10
2022-10-29T22:33:31.744Z,14.80
2022-10-29T22:36:20.198Z,14.30
2022-10-29T22:39:09.348Z,14.10
2022-10-29T22:41:39.791Z,13.10
2022-10-29T22:44:26.275Z,14.10
2022-10-29T22:48:11.762Z,12.40
2022-10-29T22:51:37.335Z,14.90
2022-10-29T22:54:22.224Z,14.10
2022-10-29T22:57:03.578Z,14.90
2022-10-29T22:59:49.411Z,14.70
2022-10-29T23:02:48.781Z,13.00
2022-10-29T23:05:21.183Z,18.90
2022-10-29T23:08:05.009Z,14.80
2022-10-29T23:11:08.879Z,13.30
2022-10-29T23:13:55.887Z,15.00
2022-10-29T23:16:46.671Z,13.60
2022-10-29T23:19:35.094Z,14.10
2022-10-29T23:22:28.690Z,13.30
2022-10-29T23:24:59.264Z,13.90
2022-10-29T23:27:56.415Z,14.90
2022-10-29T23:31:27.602Z,14.40
2022-10-29T23:33:58.402Z,13.20
2022-10-29T23:36:43.895Z,15.70
2022-10-29T23:39:30.138Z,13.40
2022-10-29T23:41:57.782Z,15.70
2022-10-29T23:44:24.896Z,12.60
2022-10-29T23:46:52.262Z,14.00
2022-10-29T23:49:32.006Z,16.50
2022-10-29T23:52:37.505Z,12.70
2022-10-29T23:55:04.897Z,14.50
2022-10-29T23:57:33.449Z,14.60
